ePrivacy and GPDR Cookie Consent by Cookie Consent
EmailTwitter


Observations de surface / France / LFBO (07630)

Régions: Québec | Canada | États-Unis | Europe | France | UK | Ailleurs
Station
Affichage
Infos & localisation pour LFBO (07630) | Aide pour décoder les METARs

Observations prises le 2022-08-14 à 13H00 UTC à TOULOUSE/BLAGNAC, FR (LFBO)

Etat du ciel: partiellement nuageux.

Température: 29.0 Celsius

Point de rosée: 16.0 Celsius

Humidité relative: 45%

Indice Humidex 34.

Vents: Ouest à 20 km/h ou 11 noeuds.

Pression au niveau moyen de la mer: 101.00 kilopascals.

Visibilité horizontale: 6.21 milles terrestres ou 9.94 kilomètres.

Hauteur du plafond: 2316 mètres ( 7600 pieds ).

Observation METAR:

LFBO 141300Z AUTO 28011KT 250V330 9999 FEW044 SCT052 BKN076 29/16 Q1010 TEMPO

29015G25KT BKN040 FEW060CB=